sensor_id;sensor_type;location;lat;lon;timestamp;temperature;humidity
48728;DHT22;34527;45.618;5.130;2022-10-16T00:00:34;17.70;99.90
48728;DHT22;34527;45.618;5.130;2022-10-16T00:03:01;17.70;99.90
48728;DHT22;34527;45.618;5.130;2022-10-16T00:05:27;17.70;99.90
48728;DHT22;34527;45.618;5.130;2022-10-16T00:07:53;17.70;99.90
48728;DHT22;34527;45.618;5.130;2022-10-16T00:10:19;17.70;99.90
48728;DHT22;34527;45.618;5.130;2022-10-16T00:12:45;17.70;99.90
48728;DHT22;34527;45.618;5.130;2022-10-16T00:15:11;17.60;99.90
48728;DHT22;34527;45.618;5.130;2022-10-16T00:17:37;17.60;99.90
48728;DHT22;34527;45.618;5.130;2022-10-16T00:20:04;17.60;99.90
48728;DHT22;34527;45.618;5.130;2022-10-16T00:22:30;17.60;99.90
48728;DHT22;34527;45.618;5.130;2022-10-16T00:24:56;17.60;99.90
48728;DHT22;34527;45.618;5.130;2022-10-16T00:27:22;17.60;99.90
48728;DHT22;34527;45.618;5.130;2022-10-16T00:29:51;17.60;99.90
48728;DHT22;34527;45.618;5.130;2022-10-16T00:32:18;17.60;99.90
48728;DHT22;34527;45.618;5.130;2022-10-16T00:34:45;17.60;99.90
48728;DHT22;34527;45.618;5.130;2022-10-16T00:37:11;17.60;99.90
48728;DHT22;34527;45.618;5.130;2022-10-16T00:39:37;17.60;99.90
48728;DHT22;34527;45.618;5.130;2022-10-16T00:42:03;17.60;99.90
48728;DHT22;34527;45.618;5.130;2022-10-16T00:44:42;17.60;99.90
48728;DHT22;34527;45.618;5.130;2022-10-16T00:47:21;17.60;99.90
48728;DHT22;34527;45.618;5.130;2022-10-16T00:49:50;17.60;99.90
48728;DHT22;34527;45.618;5.130;2022-10-16T00:52:17;17.60;99.90
48728;DHT22;34527;45.618;5.130;2022-10-16T00:54:46;17.70;99.90
48728;DHT22;34527;45.618;5.130;2022-10-16T00:57:12;17.70;99.90
48728;DHT22;34527;45.618;5.130;2022-10-16T00:59:42;17.70;99.90
48728;DHT22;34527;45.618;5.130;2022-10-16T01:02:12;17.70;99.90
48728;DHT22;34527;45.618;5.130;2022-10-16T01:04:44;17.60;99.90
48728;DHT22;34527;45.618;5.130;2022-10-16T01:13:12;17.60;99.90
48728;DHT22;34527;45.618;5.130;2022-10-16T01:15:47;17.70;99.90
48728;DHT22;34527;45.618;5.130;2022-10-16T01:18:19;17.70;99.90
48728;DHT22;34527;45.618;5.130;2022-10-16T01:21:08;17.70;99.90
48728;DHT22;34527;45.618;5.130;2022-10-16T01:28:55;17.70;99.90
48728;DHT22;34527;45.618;5.130;2022-10-16T01:31:25;17.70;99.90
48728;DHT22;34527;45.618;5.130;2022-10-16T01:34:01;17.80;99.90
48728;DHT22;34527;45.618;5.130;2022-10-16T01:36:41;17.70;99.90
48728;DHT22;34527;45.618;5.130;2022-10-16T01:39:10;17.70;99.90
48728;DHT22;34527;45.618;5.130;2022-10-16T01:41:46;17.70;99.90
48728;DHT22;34527;45.618;5.130;2022-10-16T01:44:17;17.70;99.90
48728;DHT22;34527;45.618;5.130;2022-10-16T01:46:47;17.70;99.90
48728;DHT22;34527;45.618;5.130;2022-10-16T01:49:14;17.70;99.90
48728;DHT22;34527;45.618;5.130;2022-10-16T01:51:45;17.70;99.90
48728;DHT22;34527;45.618;5.130;2022-10-16T01:54:14;17.60;99.90
48728;DHT22;34527;45.618;5.130;2022-10-16T01:56:41;17.60;99.90
48728;DHT22;34527;45.618;5.130;2022-10-16T01:59:12;17.60;99.90
48728;DHT22;34527;45.618;5.130;2022-10-16T02:01:43;17.70;99.90
48728;DHT22;34527;45.618;5.130;2022-10-16T02:04:15;17.70;99.90
48728;DHT22;34527;45.618;5.130;2022-10-16T02:06:42;17.70;99.90
48728;DHT22;34527;45.618;5.130;2022-10-16T02:09:09;17.60;99.90
48728;DHT22;34527;45.618;5.130;2022-10-16T02:11:35;17.60;99.90
48728;DHT22;34527;45.618;5.130;2022-10-16T02:14:04;17.70;99.90
48728;DHT22;34527;45.618;5.130;2022-10-16T02:16:43;17.70;99.90
48728;DHT22;34527;45.618;5.130;2022-10-16T02:19:09;17.60;99.90
48728;DHT22;34527;45.618;5.130;2022-10-16T02:21:46;17.60;99.90
48728;DHT22;34527;45.618;5.130;2022-10-16T02:27:00;17.60;99.90
48728;DHT22;34527;45.618;5.130;2022-10-16T02:29:29;17.70;99.90
48728;DHT22;34527;45.618;5.130;2022-10-16T02:32:01;17.70;99.90
48728;DHT22;34527;45.618;5.130;2022-10-16T02:34:30;17.60;99.90
48728;DHT22;34527;45.618;5.130;2022-10-16T02:37:00;17.60;99.90
48728;DHT22;34527;45.618;5.130;2022-10-16T02:39:27;17.60;99.90
48728;DHT22;34527;45.618;5.130;2022-10-16T02:41:54;17.60;99.90
48728;DHT22;34527;45.618;5.130;2022-10-16T02:44:20;17.50;99.90
48728;DHT22;34527;45.618;5.130;2022-10-16T02:46:46;17.50;99.90
48728;DHT22;34527;45.618;5.130;2022-10-16T02:49:12;17.50;99.90
48728;DHT22;34527;45.618;5.130;2022-10-16T02:51:37;17.50;99.90
48728;DHT22;34527;45.618;5.130;2022-10-16T02:54:03;17.50;99.90
48728;DHT22;34527;45.618;5.130;2022-10-16T02:56:30;17.50;99.90
48728;DHT22;34527;45.618;5.130;2022-10-16T02:58:56;17.60;99.90
48728;DHT22;34527;45.618;5.130;2022-10-16T03:01:23;17.50;99.90
48728;DHT22;34527;45.618;5.130;2022-10-16T03:03:49;17.50;99.90
48728;DHT22;34527;45.618;5.130;2022-10-16T03:06:15;17.50;99.90
48728;DHT22;34527;45.618;5.130;2022-10-16T03:08:41;17.50;99.90
48728;DHT22;34527;45.618;5.130;2022-10-16T03:11:07;17.50;99.90
48728;DHT22;34527;45.618;5.130;2022-10-16T03:13:33;17.50;99.90
48728;DHT22;34527;45.618;5.130;2022-10-16T03:15:58;17.50;99.90
48728;DHT22;34527;45.618;5.130;2022-10-16T03:18:24;17.40;99.90
48728;DHT22;34527;45.618;5.130;2022-10-16T03:20:50;17.50;99.90
48728;DHT22;34527;45.618;5.130;2022-10-16T03:23:16;17.40;99.90
48728;DHT22;34527;45.618;5.130;2022-10-16T03:25:42;17.40;99.90
48728;DHT22;34527;45.618;5.130;2022-10-16T03:28:08;17.40;99.90
48728;DHT22;34527;45.618;5.130;2022-10-16T03:30:34;17.40;99.90
48728;DHT22;34527;45.618;5.130;2022-10-16T03:33:00;17.50;99.90
48728;DHT22;34527;45.618;5.130;2022-10-16T03:35:26;17.50;99.90
48728;DHT22;34527;45.618;5.130;2022-10-16T03:37:52;17.40;99.90
48728;DHT22;34527;45.618;5.130;2022-10-16T03:40:18;17.50;99.90
48728;DHT22;34527;45.618;5.130;2022-10-16T03:42:44;17.40;99.90
48728;DHT22;34527;45.618;5.130;2022-10-16T03:45:11;17.40;99.90
48728;DHT22;34527;45.618;5.130;2022-10-16T03:47:36;17.40;99.90
48728;DHT22;34527;45.618;5.130;2022-10-16T03:50:03;17.50;99.90
48728;DHT22;34527;45.618;5.130;2022-10-16T03:52:29;17.40;99.90
48728;DHT22;34527;45.618;5.130;2022-10-16T03:54:55;17.50;99.90
48728;DHT22;34527;45.618;5.130;2022-10-16T03:57:21;17.50;99.90
48728;DHT22;34527;45.618;5.130;2022-10-16T03:59:47;17.50;99.90
48728;DHT22;34527;45.618;5.130;2022-10-16T04:02:13;17.50;99.90
48728;DHT22;34527;45.618;5.130;2022-10-16T04:04:39;17.60;99.90
48728;DHT22;34527;45.618;5.130;2022-10-16T04:07:05;17.50;99.90
48728;DHT22;34527;45.618;5.130;2022-10-16T04:09:30;17.50;99.90
48728;DHT22;34527;45.618;5.130;2022-10-16T04:11:56;17.50;99.90
48728;DHT22;34527;45.618;5.130;2022-10-16T04:14:22;17.60;99.90
48728;DHT22;34527;45.618;5.130;2022-10-16T04:16:48;17.50;99.90
48728;DHT22;34527;45.618;5.130;2022-10-16T04:19:14;17.60;99.90
48728;DHT22;34527;45.618;5.130;2022-10-16T04:21:40;17.50;99.90
48728;DHT22;34527;45.618;5.130;2022-10-16T04:24:06;17.50;99.90
48728;DHT22;34527;45.618;5.130;2022-10-16T04:26:31;17.50;99.90
48728;DHT22;34527;45.618;5.130;2022-10-16T04:28:57;17.50;99.90
48728;DHT22;34527;45.618;5.130;2022-10-16T04:31:23;17.50;99.90
48728;DHT22;34527;45.618;5.130;2022-10-16T04:33:49;17.50;99.90
48728;DHT22;34527;45.618;5.130;2022-10-16T04:36:15;17.50;99.90
48728;DHT22;34527;45.618;5.130;2022-10-16T04:38:41;17.50;99.90
48728;DHT22;34527;45.618;5.130;2022-10-16T04:41:07;17.60;99.90
48728;DHT22;34527;45.618;5.130;2022-10-16T04:43:33;17.60;99.90
48728;DHT22;34527;45.618;5.130;2022-10-16T04:45:59;17.60;99.90
48728;DHT22;34527;45.618;5.130;2022-10-16T04:48:26;17.60;99.90
48728;DHT22;34527;45.618;5.130;2022-10-16T04:50:52;17.60;99.90
48728;DHT22;34527;45.618;5.130;2022-10-16T04:53:18;17.60;99.90
48728;DHT22;34527;45.618;5.130;2022-10-16T04:55:43;17.70;99.90
48728;DHT22;34527;45.618;5.130;2022-10-16T04:58:10;17.60;99.90
48728;DHT22;34527;45.618;5.130;2022-10-16T05:00:36;17.60;99.90
48728;DHT22;34527;45.618;5.130;2022-10-16T05:03:02;17.60;99.90
48728;DHT22;34527;45.618;5.130;2022-10-16T05:05:31;17.60;99.90
48728;DHT22;34527;45.618;5.130;2022-10-16T05:07:57;17.60;99.90
48728;DHT22;34527;45.618;5.130;2022-10-16T05:10:23;17.70;99.90
48728;DHT22;34527;45.618;5.130;2022-10-16T05:12:49;17.60;99.90
48728;DHT22;34527;45.618;5.130;2022-10-16T05:15:15;17.60;99.90
48728;DHT22;34527;45.618;5.130;2022-10-16T05:17:41;17.60;99.90
48728;DHT22;34527;45.618;5.130;2022-10-16T05:20:07;17.60;99.90
48728;DHT22;34527;45.618;5.130;2022-10-16T05:22:33;17.60;99.90
48728;DHT22;34527;45.618;5.130;2022-10-16T05:24:59;17.60;99.90
48728;DHT22;34527;45.618;5.130;2022-10-16T05:27:24;17.60;99.90
48728;DHT22;34527;45.618;5.130;2022-10-16T05:29:50;17.50;99.90
48728;DHT22;34527;45.618;5.130;2022-10-16T05:32:17;17.60;99.90
48728;DHT22;34527;45.618;5.130;2022-10-16T05:34:44;17.60;99.90
48728;DHT22;34527;45.618;5.130;2022-10-16T05:37:11;17.60;99.90
48728;DHT22;34527;45.618;5.130;2022-10-16T05:39:37;17.60;99.90
48728;DHT22;34527;45.618;5.130;2022-10-16T05:42:04;17.60;99.90
48728;DHT22;34527;45.618;5.130;2022-10-16T05:44:30;17.60;99.90
48728;DHT22;34527;45.618;5.130;2022-10-16T05:46:56;17.60;99.90
48728;DHT22;34527;45.618;5.130;2022-10-16T05:49:22;17.60;99.90
48728;DHT22;34527;45.618;5.130;2022-10-16T05:51:48;17.60;99.90
48728;DHT22;34527;45.618;5.130;2022-10-16T05:54:14;17.60;99.90
48728;DHT22;34527;45.618;5.130;2022-10-16T05:56:40;17.60;99.90
48728;DHT22;34527;45.618;5.130;2022-10-16T05:59:06;17.50;99.90
48728;DHT22;34527;45.618;5.130;2022-10-16T06:01:32;17.50;99.90
48728;DHT22;34527;45.618;5.130;2022-10-16T06:03:58;17.50;99.90
48728;DHT22;34527;45.618;5.130;2022-10-16T06:06:25;17.50;99.90
48728;DHT22;34527;45.618;5.130;2022-10-16T06:08:52;17.50;99.90
48728;DHT22;34527;45.618;5.130;2022-10-16T06:11:21;17.40;99.90
48728;DHT22;34527;45.618;5.130;2022-10-16T06:13:55;17.40;99.90
48728;DHT22;34527;45.618;5.130;2022-10-16T06:16:26;17.40;99.90
48728;DHT22;34527;45.618;5.130;2022-10-16T06:18:53;17.50;99.90
48728;DHT22;34527;45.618;5.130;2022-10-16T06:21:22;17.40;99.90
48728;DHT22;34527;45.618;5.130;2022-10-16T06:23:50;17.40;99.90
48728;DHT22;34527;45.618;5.130;2022-10-16T06:26:18;17.50;99.90
48728;DHT22;34527;45.618;5.130;2022-10-16T06:28:45;17.50;99.90
48728;DHT22;34527;45.618;5.130;2022-10-16T06:31:11;17.50;99.90
48728;DHT22;34527;45.618;5.130;2022-10-16T06:33:38;17.50;99.90
48728;DHT22;34527;45.618;5.130;2022-10-16T06:36:10;17.40;99.90
48728;DHT22;34527;45.618;5.130;2022-10-16T06:38:37;17.50;99.90
48728;DHT22;34527;45.618;5.130;2022-10-16T06:41:05;17.50;99.90
48728;DHT22;34527;45.618;5.130;2022-10-16T06:43:31;17.50;99.90
48728;DHT22;34527;45.618;5.130;2022-10-16T06:46:07;17.50;99.90
48728;DHT22;34527;45.618;5.130;2022-10-16T06:48:34;17.40;99.90
48728;DHT22;34527;45.618;5.130;2022-10-16T06:51:04;17.40;99.90
48728;DHT22;34527;45.618;5.130;2022-10-16T06:53:35;17.40;99.90
48728;DHT22;34527;45.618;5.130;2022-10-16T06:56:15;17.30;99.90
48728;DHT22;34527;45.618;5.130;2022-10-16T06:58:41;17.40;99.90
48728;DHT22;34527;45.618;5.130;2022-10-16T07:01:08;17.40;99.90
48728;DHT22;34527;45.618;5.130;2022-10-16T07:03:39;17.60;99.90
48728;DHT22;34527;45.618;5.130;2022-10-16T07:06:07;17.60;99.90
48728;DHT22;34527;45.618;5.130;2022-10-16T07:08:37;17.70;99.90
48728;DHT22;34527;45.618;5.130;2022-10-16T07:11:08;17.70;99.90
48728;DHT22;34527;45.618;5.130;2022-10-16T07:13:35;17.70;99.90
48728;DHT22;34527;45.618;5.130;2022-10-16T07:18:32;17.90;99.90
48728;DHT22;34527;45.618;5.130;2022-10-16T07:21:09;18.00;99.90
48728;DHT22;34527;45.618;5.130;2022-10-16T07:23:35;18.20;99.90
48728;DHT22;34527;45.618;5.130;2022-10-16T07:26:01;18.20;99.90
48728;DHT22;34527;45.618;5.130;2022-10-16T07:28:28;18.30;99.90
48728;DHT22;34527;45.618;5.130;2022-10-16T07:30:54;18.40;99.90
48728;DHT22;34527;45.618;5.130;2022-10-16T07:33:20;18.50;99.90
48728;DHT22;34527;45.618;5.130;2022-10-16T07:35:51;18.60;99.90
48728;DHT22;34527;45.618;5.130;2022-10-16T07:38:17;18.70;99.90
48728;DHT22;34527;45.618;5.130;2022-10-16T07:40:44;18.80;99.90
48728;DHT22;34527;45.618;5.130;2022-10-16T07:43:10;18.90;99.90
48728;DHT22;34527;45.618;5.130;2022-10-16T07:45:36;19.00;99.90
48728;DHT22;34527;45.618;5.130;2022-10-16T07:48:02;19.10;99.90
48728;DHT22;34527;45.618;5.130;2022-10-16T07:50:28;19.20;99.90
48728;DHT22;34527;45.618;5.130;2022-10-16T07:52:53;19.30;99.90
48728;DHT22;34527;45.618;5.130;2022-10-16T07:55:19;19.40;99.90
48728;DHT22;34527;45.618;5.130;2022-10-16T07:57:45;19.50;99.90
48728;DHT22;34527;45.618;5.130;2022-10-16T08:00:11;19.60;99.90
48728;DHT22;34527;45.618;5.130;2022-10-16T08:02:41;19.70;99.90
48728;DHT22;34527;45.618;5.130;2022-10-16T08:05:07;19.80;99.90
48728;DHT22;34527;45.618;5.130;2022-10-16T08:07:33;19.90;99.90
48728;DHT22;34527;45.618;5.130;2022-10-16T08:09:59;19.90;99.90
48728;DHT22;34527;45.618;5.130;2022-10-16T08:12:26;20.00;99.90
48728;DHT22;34527;45.618;5.130;2022-10-16T08:14:52;20.10;99.90
48728;DHT22;34527;45.618;5.130;2022-10-16T08:17:17;20.20;99.90
48728;DHT22;34527;45.618;5.130;2022-10-16T08:19:47;20.20;99.90
48728;DHT22;34527;45.618;5.130;2022-10-16T08:22:13;20.20;99.90
48728;DHT22;34527;45.618;5.130;2022-10-16T08:24:40;20.30;99.90
48728;DHT22;34527;45.618;5.130;2022-10-16T08:27:07;20.30;99.90
48728;DHT22;34527;45.618;5.130;2022-10-16T08:29:34;20.40;99.90
48728;DHT22;34527;45.618;5.130;2022-10-16T08:32:00;20.50;99.90
48728;DHT22;34527;45.618;5.130;2022-10-16T08:34:26;20.60;99.90
48728;DHT22;34527;45.618;5.130;2022-10-16T08:36:55;20.60;99.90
48728;DHT22;34527;45.618;5.130;2022-10-16T08:39:21;20.70;99.90
48728;DHT22;34527;45.618;5.130;2022-10-16T08:45:19;20.80;99.90
48728;DHT22;34527;45.618;5.130;2022-10-16T08:47:53;20.80;99.90
48728;DHT22;34527;45.618;5.130;2022-10-16T08:50:24;20.80;99.90
48728;DHT22;34527;45.618;5.130;2022-10-16T08:52:51;20.80;99.90
48728;DHT22;34527;45.618;5.130;2022-10-16T08:55:34;20.90;99.90
48728;DHT22;34527;45.618;5.130;2022-10-16T08:58:20;21.00;99.90
48728;DHT22;34527;45.618;5.130;2022-10-16T09:00:57;21.00;99.90
48728;DHT22;34527;45.618;5.130;2022-10-16T09:06:46;21.00;99.90
48728;DHT22;34527;45.618;5.130;2022-10-16T09:12:19;21.10;99.90
48728;DHT22;34527;45.618;5.130;2022-10-16T09:15:17;21.20;99.90
48728;DHT22;34527;45.618;5.130;2022-10-16T09:23:30;21.20;99.90
48728;DHT22;34527;45.618;5.130;2022-10-16T09:25:56;21.30;99.90
48728;DHT22;34527;45.618;5.130;2022-10-16T09:28:24;21.40;99.90
48728;DHT22;34527;45.618;5.130;2022-10-16T09:30:50;21.40;99.90
48728;DHT22;34527;45.618;5.130;2022-10-16T09:33:18;21.50;99.90
48728;DHT22;34527;45.618;5.130;2022-10-16T09:35:49;21.50;99.90
48728;DHT22;34527;45.618;5.130;2022-10-16T09:38:27;21.50;99.90
48728;DHT22;34527;45.618;5.130;2022-10-16T09:40:55;21.60;99.90
48728;DHT22;34527;45.618;5.130;2022-10-16T09:43:33;21.60;99.90
48728;DHT22;34527;45.618;5.130;2022-10-16T09:46:19;21.60;99.90
48728;DHT22;34527;45.618;5.130;2022-10-16T09:48:50;21.70;99.90
48728;DHT22;34527;45.618;5.130;2022-10-16T09:51:23;21.80;99.90
48728;DHT22;34527;45.618;5.130;2022-10-16T09:53:58;21.90;99.90
48728;DHT22;34527;45.618;5.130;2022-10-16T09:56:25;21.90;99.90
48728;DHT22;34527;45.618;5.130;2022-10-16T09:58:54;21.90;99.90
48728;DHT22;34527;45.618;5.130;2022-10-16T10:01:22;21.90;99.90
48728;DHT22;34527;45.618;5.130;2022-10-16T10:03:50;21.90;99.90
48728;DHT22;34527;45.618;5.130;2022-10-16T10:06:22;22.00;99.90
48728;DHT22;34527;45.618;5.130;2022-10-16T10:09:03;22.00;99.90
48728;DHT22;34527;45.618;5.130;2022-10-16T10:14:20;22.00;99.90
48728;DHT22;34527;45.618;5.130;2022-10-16T10:16:47;22.10;99.90
48728;DHT22;34527;45.618;5.130;2022-10-16T10:19:22;22.10;99.90
48728;DHT22;34527;45.618;5.130;2022-10-16T10:21:49;22.20;99.90
48728;DHT22;34527;45.618;5.130;2022-10-16T10:24:17;22.20;99.90
48728;DHT22;34527;45.618;5.130;2022-10-16T10:27:08;22.20;99.90
48728;DHT22;34527;45.618;5.130;2022-10-16T10:29:59;22.30;99.90
48728;DHT22;34527;45.618;5.130;2022-10-16T10:40:52;22.50;99.90
48728;DHT22;34527;45.618;5.130;2022-10-16T10:43:44;22.50;99.90
48728;DHT22;34527;45.618;5.130;2022-10-16T10:46:34;22.60;99.90
48728;DHT22;34527;45.618;5.130;2022-10-16T10:54:14;22.70;99.90
48728;DHT22;34527;45.618;5.130;2022-10-16T10:56:56;22.70;99.90
48728;DHT22;34527;45.618;5.130;2022-10-16T11:02:18;22.80;99.90
48728;DHT22;34527;45.618;5.130;2022-10-16T11:07:45;22.80;99.90
48728;DHT22;34527;45.618;5.130;2022-10-16T11:10:17;22.70;99.90
48728;DHT22;34527;45.618;5.130;2022-10-16T11:12:58;22.80;99.90
48728;DHT22;34527;45.618;5.130;2022-10-16T11:15:30;22.80;99.90
48728;DHT22;34527;45.618;5.130;2022-10-16T11:18:06;22.90;99.90
48728;DHT22;34527;45.618;5.130;2022-10-16T11:20:56;22.90;99.90
48728;DHT22;34527;45.618;5.130;2022-10-16T11:23:30;22.90;99.90
48728;DHT22;34527;45.618;5.130;2022-10-16T11:26:00;22.90;99.90
48728;DHT22;34527;45.618;5.130;2022-10-16T11:28:33;23.10;99.90
48728;DHT22;34527;45.618;5.130;2022-10-16T11:31:13;23.10;99.90
48728;DHT22;34527;45.618;5.130;2022-10-16T11:33:46;23.20;99.90
48728;DHT22;34527;45.618;5.130;2022-10-16T11:36:23;23.10;99.90
48728;DHT22;34527;45.618;5.130;2022-10-16T11:41:53;23.10;99.90
48728;DHT22;34527;45.618;5.130;2022-10-16T11:47:26;23.30;99.90
48728;DHT22;34527;45.618;5.130;2022-10-16T11:50:09;23.40;99.90
48728;DHT22;34527;45.618;5.130;2022-10-16T11:55:41;23.30;99.90
48728;DHT22;34527;45.618;5.130;2022-10-16T12:06:37;23.40;99.90
48728;DHT22;34527;45.618;5.130;2022-10-16T12:09:05;23.40;99.90
48728;DHT22;34527;45.618;5.130;2022-10-16T12:11:38;23.30;99.90
48728;DHT22;34527;45.618;5.130;2022-10-16T12:16:38;23.20;99.90
48728;DHT22;34527;45.618;5.130;2022-10-16T12:19:13;23.20;99.90
48728;DHT22;34527;45.618;5.130;2022-10-16T12:21:40;23.10;99.90
48728;DHT22;34527;45.618;5.130;2022-10-16T12:24:06;23.20;99.90
48728;DHT22;34527;45.618;5.130;2022-10-16T12:26:45;23.20;99.90
48728;DHT22;34527;45.618;5.130;2022-10-16T12:29:32;23.30;99.90
48728;DHT22;34527;45.618;5.130;2022-10-16T12:31:58;23.30;99.90
48728;DHT22;34527;45.618;5.130;2022-10-16T12:34:42;23.20;99.90
48728;DHT22;34527;45.618;5.130;2022-10-16T12:37:33;23.20;99.90
48728;DHT22;34527;45.618;5.130;2022-10-16T12:40:12;23.30;99.90
48728;DHT22;34527;45.618;5.130;2022-10-16T12:42:39;23.30;99.90
48728;DHT22;34527;45.618;5.130;2022-10-16T12:47:53;23.40;99.90
48728;DHT22;34527;45.618;5.130;2022-10-16T12:52:57;23.10;99.90
48728;DHT22;34527;45.618;5.130;2022-10-16T12:55:24;23.10;99.90
48728;DHT22;34527;45.618;5.130;2022-10-16T12:58:23;23.10;99.90
48728;DHT22;34527;45.618;5.130;2022-10-16T13:11:52;23.10;99.90
48728;DHT22;34527;45.618;5.130;2022-10-16T13:17:17;23.10;99.90
48728;DHT22;34527;45.618;5.130;2022-10-16T13:23:02;23.00;99.90
48728;DHT22;34527;45.618;5.130;2022-10-16T13:28:34;23.10;99.90
48728;DHT22;34527;45.618;5.130;2022-10-16T13:31:01;23.10;99.90
48728;DHT22;34527;45.618;5.130;2022-10-16T13:33:41;23.20;99.90
48728;DHT22;34527;45.618;5.130;2022-10-16T13:36:30;23.10;99.90
48728;DHT22;34527;45.618;5.130;2022-10-16T13:41:32;23.10;99.90
48728;DHT22;34527;45.618;5.130;2022-10-16T13:43:58;23.00;99.90
48728;DHT22;34527;45.618;5.130;2022-10-16T13:46:25;23.00;99.90
48728;DHT22;34527;45.618;5.130;2022-10-16T13:49:00;22.90;99.90
48728;DHT22;34527;45.618;5.130;2022-10-16T13:51:26;23.00;99.90
48728;DHT22;34527;45.618;5.130;2022-10-16T13:53:55;23.00;99.90
48728;DHT22;34527;45.618;5.130;2022-10-16T13:56:25;23.10;99.90
48728;DHT22;34527;45.618;5.130;2022-10-16T13:59:00;23.10;99.90
48728;DHT22;34527;45.618;5.130;2022-10-16T14:01:35;23.20;99.90
48728;DHT22;34527;45.618;5.130;2022-10-16T14:04:11;23.10;99.90
48728;DHT22;34527;45.618;5.130;2022-10-16T14:06:42;23.10;99.90
48728;DHT22;34527;45.618;5.130;2022-10-16T14:11:46;23.20;99.90
48728;DHT22;34527;45.618;5.130;2022-10-16T14:14:13;23.20;99.90
48728;DHT22;34527;45.618;5.130;2022-10-16T14:16:41;23.20;99.90
48728;DHT22;34527;45.618;5.130;2022-10-16T14:19:28;23.20;99.90
48728;DHT22;34527;45.618;5.130;2022-10-16T14:21:59;23.20;99.90
48728;DHT22;34527;45.618;5.130;2022-10-16T14:26:57;23.20;99.90
48728;DHT22;34527;45.618;5.130;2022-10-16T14:29:24;23.20;99.90
48728;DHT22;34527;45.618;5.130;2022-10-16T14:32:03;23.10;99.90
48728;DHT22;34527;45.618;5.130;2022-10-16T14:34:39;23.10;99.90
48728;DHT22;34527;45.618;5.130;2022-10-16T14:37:34;23.10;99.90
48728;DHT22;34527;45.618;5.130;2022-10-16T14:40:02;23.10;99.90
48728;DHT22;34527;45.618;5.130;2022-10-16T14:42:28;23.10;99.90
48728;DHT22;34527;45.618;5.130;2022-10-16T14:44:54;23.20;99.90
48728;DHT22;34527;45.618;5.130;2022-10-16T14:47:25;23.10;99.90
48728;DHT22;34527;45.618;5.130;2022-10-16T14:49:54;23.10;99.90
48728;DHT22;34527;45.618;5.130;2022-10-16T14:52:23;23.10;99.90
48728;DHT22;34527;45.618;5.130;2022-10-16T14:54:49;23.00;99.90
48728;DHT22;34527;45.618;5.130;2022-10-16T14:57:18;23.00;99.90
48728;DHT22;34527;45.618;5.130;2022-10-16T14:59:45;23.00;99.90
48728;DHT22;34527;45.618;5.130;2022-10-16T15:04:46;22.90;99.90
48728;DHT22;34527;45.618;5.130;2022-10-16T15:07:12;22.90;99.90
48728;DHT22;34527;45.618;5.130;2022-10-16T15:09:38;22.90;99.90
48728;DHT22;34527;45.618;5.130;2022-10-16T15:12:04;22.90;99.90
48728;DHT22;34527;45.618;5.130;2022-10-16T15:14:30;22.80;99.90
48728;DHT22;34527;45.618;5.130;2022-10-16T15:16:56;22.90;99.90
48728;DHT22;34527;45.618;5.130;2022-10-16T15:19:22;22.80;99.90
48728;DHT22;34527;45.618;5.130;2022-10-16T15:21:48;22.80;99.90
48728;DHT22;34527;45.618;5.130;2022-10-16T15:24:15;22.80;99.90
48728;DHT22;34527;45.618;5.130;2022-10-16T15:26:41;22.70;99.90
48728;DHT22;34527;45.618;5.130;2022-10-16T15:29:08;22.70;99.90
48728;DHT22;34527;45.618;5.130;2022-10-16T15:31:34;22.70;99.90
48728;DHT22;34527;45.618;5.130;2022-10-16T15:34:00;22.60;99.90
48728;DHT22;34527;45.618;5.130;2022-10-16T15:36:37;22.50;99.90
48728;DHT22;34527;45.618;5.130;2022-10-16T15:39:12;22.50;99.90
48728;DHT22;34527;45.618;5.130;2022-10-16T15:41:39;22.40;99.90
48728;DHT22;34527;45.618;5.130;2022-10-16T15:44:05;22.30;99.90
48728;DHT22;34527;45.618;5.130;2022-10-16T15:46:30;22.30;99.90
48728;DHT22;34527;45.618;5.130;2022-10-16T15:49:00;22.30;99.90
48728;DHT22;34527;45.618;5.130;2022-10-16T15:51:27;22.20;99.90
48728;DHT22;34527;45.618;5.130;2022-10-16T15:53:56;22.20;99.90
48728;DHT22;34527;45.618;5.130;2022-10-16T15:56:22;22.10;99.90
48728;DHT22;34527;45.618;5.130;2022-10-16T15:58:51;22.10;99.90
48728;DHT22;34527;45.618;5.130;2022-10-16T16:01:17;22.00;99.90
48728;DHT22;34527;45.618;5.130;2022-10-16T16:03:43;22.00;99.90
48728;DHT22;34527;45.618;5.130;2022-10-16T16:06:12;21.90;99.90
48728;DHT22;34527;45.618;5.130;2022-10-16T16:08:38;21.90;99.90
48728;DHT22;34527;45.618;5.130;2022-10-16T16:11:10;21.80;99.90
48728;DHT22;34527;45.618;5.130;2022-10-16T16:13:36;21.80;99.90
48728;DHT22;34527;45.618;5.130;2022-10-16T16:16:14;21.80;99.90
48728;DHT22;34527;45.618;5.130;2022-10-16T16:18:41;21.70;99.90
48728;DHT22;34527;45.618;5.130;2022-10-16T16:21:07;21.60;99.90
48728;DHT22;34527;45.618;5.130;2022-10-16T16:23:33;21.60;99.90
48728;DHT22;34527;45.618;5.130;2022-10-16T16:26:11;21.50;99.90
48728;DHT22;34527;45.618;5.130;2022-10-16T16:28:39;21.50;99.90
48728;DHT22;34527;45.618;5.130;2022-10-16T16:31:05;21.40;99.90
48728;DHT22;34527;45.618;5.130;2022-10-16T16:33:32;21.40;99.90
48728;DHT22;34527;45.618;5.130;2022-10-16T16:36:02;21.40;99.90
48728;DHT22;34527;45.618;5.130;2022-10-16T16:38:29;21.30;99.90
48728;DHT22;34527;45.618;5.130;2022-10-16T16:40:55;21.30;99.90
48728;DHT22;34527;45.618;5.130;2022-10-16T16:43:30;21.30;99.90
48728;DHT22;34527;45.618;5.130;2022-10-16T16:45:56;21.20;99.90
48728;DHT22;34527;45.618;5.130;2022-10-16T16:48:26;21.10;99.90
48728;DHT22;34527;45.618;5.130;2022-10-16T16:50:52;21.10;99.90
48728;DHT22;34527;45.618;5.130;2022-10-16T16:53:18;21.10;99.90
48728;DHT22;34527;45.618;5.130;2022-10-16T16:55:44;21.00;99.90
48728;DHT22;34527;45.618;5.130;2022-10-16T16:58:10;20.90;99.90
48728;DHT22;34527;45.618;5.130;2022-10-16T17:00:35;20.90;99.90
48728;DHT22;34527;45.618;5.130;2022-10-16T17:03:01;20.90;99.90
48728;DHT22;34527;45.618;5.130;2022-10-16T17:05:27;20.80;99.90
48728;DHT22;34527;45.618;5.130;2022-10-16T17:07:54;20.80;99.90
48728;DHT22;34527;45.618;5.130;2022-10-16T17:10:20;20.70;99.90
48728;DHT22;34527;45.618;5.130;2022-10-16T17:12:46;20.70;99.90
48728;DHT22;34527;45.618;5.130;2022-10-16T17:15:12;20.70;99.90
48728;DHT22;34527;45.618;5.130;2022-10-16T17:17:37;20.70;99.90
48728;DHT22;34527;45.618;5.130;2022-10-16T17:20:04;20.60;99.90
48728;DHT22;34527;45.618;5.130;2022-10-16T17:22:29;20.60;99.90
48728;DHT22;34527;45.618;5.130;2022-10-16T17:24:55;20.50;99.90
48728;DHT22;34527;45.618;5.130;2022-10-16T17:27:21;20.50;99.90
48728;DHT22;34527;45.618;5.130;2022-10-16T17:29:51;20.50;99.90
48728;DHT22;34527;45.618;5.130;2022-10-16T17:32:17;20.50;99.90